DW3224 Coupeville WA US current weather conditions

sailwx.info

Wind from 327 at 6 knots gusting 11

Air temperature 13.3° C
Dewpoint 11.9° C

Last reported at 2019-Aug-18 04:10 UTC.
Time now 2019-Aug-18 05:01 UTC

Location: N 48°12' W 122°44'.
View on Google Maps.

See reports from other nearby stations

  
Tides and Currents Weather Stations Pressure Air Temp Water Temp Dewpoint Dewpoint Depression Visibility Wind Speed Wind Dir Waves Ship Positions
date/time (UTC)wind fromknots sea level pressurealtimeterstation pressurevisibilityair tempwater tempwave heightnotes
2019-Aug-18 04:10 327 6 gusting 11 13.3
2019-Aug-18 04:05 327 6 gusting 9 13.3
2019-Aug-18 04:00 330 6 gusting 9 13.3
2019-Aug-18 03:55 334 5 gusting 9 13.3
2019-Aug-18 03:50 334 5 gusting 8 13.3
2019-Aug-18 03:45 335 5 gusting 8 13.3
2019-Aug-18 03:40 336 5 gusting 7 13.3
2019-Aug-18 03:35 335 5 gusting 7 13.3
2019-Aug-18 03:30 335 5 gusting 8 13.3
2019-Aug-18 03:25 335 4 gusting 8 13.3
2019-Aug-18 03:20 335 2 gusting 6 13.3
2019-Aug-18 03:15 336 3 gusting 7 13.9
2019-Aug-18 03:10 335 4 gusting 7 13.9
2019-Aug-18 03:05 335 5 gusting 8 13.9
2019-Aug-18 03:00 335 5 gusting 8 13.9
2019-Aug-18 02:55 335 6 gusting 7 14.4
2019-Aug-18 02:50 335 6 gusting 8 14.4
2019-Aug-18 02:45 335 6 gusting 8 14.4
2019-Aug-18 02:40 335 5 gusting 7 14.4
2019-Aug-18 02:35 335 6 gusting 8 15.0
2019-Aug-18 02:30 335 6 gusting 9 15.0
2019-Aug-18 02:25 335 6 gusting 9 15.0
2019-Aug-18 02:20 334 6 gusting 8 15.6
2019-Aug-18 02:15 334 6 gusting 8 15.0
2019-Aug-18 02:10 333 6 gusting 8 15.0
2019-Aug-18 02:05 332 6 gusting 7 15.6
2019-Aug-18 02:00 332 6 gusting 9 15.6
2019-Aug-18 01:55 332 7 gusting 9 15.6
2019-Aug-18 01:50 332 6 gusting 9 15.6
2019-Aug-18 01:45 332 6 gusting 8 15.6
2019-Aug-18 01:40 332 6 gusting 7 16.1
2019-Aug-18 01:35 332 6 gusting 7 16.1
2019-Aug-18 01:30 332 5 gusting 6 15.6
2019-Aug-18 01:25 332 4 gusting 6 15.6
2019-Aug-18 01:20 331 4 gusting 6 15.6
2019-Aug-18 01:15 332 4 gusting 6 15.0
2019-Aug-18 01:10 331 4 gusting 6 15.0
2019-Aug-18 01:05 332 5 gusting 7 15.6
2019-Aug-18 01:00 332 5 gusting 7 15.6
2019-Aug-18 00:55 332 4 gusting 7 16.1
2019-Aug-18 00:50 331 2 gusting 6 16.1
2019-Aug-18 00:45 330 4 gusting 10 15.6
2019-Aug-18 00:40 324 6 gusting 10 15.6
2019-Aug-18 00:35 291 5 gusting 8 16.7
2019-Aug-18 00:30 233 2 gusting 6 17.8
2019-Aug-18 00:25 219 1 gusting 4 18.9
2019-Aug-18 00:20 219 1 gusting 4 18.9
2019-Aug-18 00:15 219 1 gusting 4 18.9
2019-Aug-18 00:10 219 1 gusting 4 18.9
2019-Aug-18 00:05 219 0 gusting 3 18.9
2019-Aug-18 00:00 219 0 gusting 3 18.9
2019-Aug-17 23:55 219 0 gusting 3 18.9
2019-Aug-17 23:50 220 0 gusting 3 18.9
2019-Aug-17 23:45 219 1 gusting 4 18.9
2019-Aug-17 23:40 219 2 gusting 4 18.9
2019-Aug-17 23:35 219 1 gusting 4 19.4
2019-Aug-17 23:30 222 0 gusting 5 19.4
2019-Aug-17 23:25 224 1 gusting 5 20.0
2019-Aug-17 23:20 224 1 gusting 6 20.0
2019-Aug-17 23:15 224 1 gusting 6 20.0
2019-Aug-17 23:10 224 2 gusting 6 20.6
2019-Aug-17 23:05 225 3 gusting 6 20.6
2019-Aug-17 23:00 224 4 gusting 6 21.1
2019-Aug-17 22:55 224 4 gusting 6 21.7
2019-Aug-17 22:50 223 3 gusting 6 22.2
2019-Aug-17 22:45 223 2 gusting 6 22.2
2019-Aug-17 22:40 222 0 gusting 6 21.7
2019-Aug-17 22:35 225 2 gusting 7 21.1
2019-Aug-17 22:30 228 4 gusting 7 20.6
2019-Aug-17 22:25 229 4 gusting 6 20.6
2019-Aug-17 22:20 229 3 gusting 6 21.1
2019-Aug-17 22:15 229 3 gusting 6 21.1
2019-Aug-17 22:10 230 2 gusting 6 20.6
2019-Aug-17 22:05 230 3 gusting 6 20.6
2019-Aug-17 22:00 231 2 gusting 6 20.6
2019-Aug-17 21:55 237 2 gusting 6 20.6
2019-Aug-17 21:50 243 2 gusting 6 20.6
2019-Aug-17 21:45 246 0 gusting 6 20.6
2019-Aug-17 21:40 246 1 gusting 6 20.6
2019-Aug-17 21:35 246 3 gusting 6 20.0
2019-Aug-17 21:30 247 3 gusting 6 20.0
2019-Aug-17 21:25 248 2 gusting 6 20.0
2019-Aug-17 21:20 247 2 gusting 6 20.0
2019-Aug-17 21:15 247 3 gusting 6 19.4
2019-Aug-17 21:10 249 3 gusting 7 19.4
2019-Aug-17 21:05 253 3 gusting 7 19.4
2019-Aug-17 21:00 256 4 gusting 6 19.4
2019-Aug-17 20:55 260 4 gusting 7 19.4
2019-Aug-17 20:50 275 3 gusting 7 20.0
2019-Aug-17 20:45 294 2 gusting 6 19.4
2019-Aug-17 20:40 297 2 gusting 5 19.4
2019-Aug-17 20:35 298 2 gusting 5 18.9
2019-Aug-17 20:30 298 0 gusting 4 18.9
2019-Aug-17 20:25 297 2 gusting 6 18.9
2019-Aug-17 20:20 296 4 gusting 6 18.3
2019-Aug-17 20:15 284 4 gusting 6 18.3
2019-Aug-17 20:10 271 2 gusting 6 18.3
2019-Aug-17 20:05 267 1 gusting 5 18.3
2019-Aug-17 20:00 267 2 gusting 5 18.3
2019-Aug-17 19:55 267 1 gusting 5 17.8
2019-Aug-17 19:50 267 2 gusting 5 17.2
2019-Aug-17 19:45 268 2 gusting 6 17.2
2019-Aug-17 19:40 272 2 gusting 6 17.2
2019-Aug-17 19:35 274 2 gusting 5 17.2
2019-Aug-17 19:30 274 1 gusting 4 17.2
2019-Aug-17 19:25 274 1 gusting 4 17.2
2019-Aug-17 19:20 274 1 gusting 4 16.7
2019-Aug-17 19:15 274 1 gusting 5 16.7
2019-Aug-17 19:10 275 2 gusting 5 16.1
2019-Aug-17 19:05 275 2 gusting 5 16.7
2019-Aug-17 19:00 276 2 gusting 4 16.7
2019-Aug-17 18:55 276 1 gusting 4 16.7
2019-Aug-17 18:50 276 1 gusting 4 16.7
2019-Aug-17 18:45 276 1 gusting 5 16.7
2019-Aug-17 18:40 276 1 gusting 5 16.7
2019-Aug-17 18:35 276 0 gusting 4 16.7
2019-Aug-17 18:30 276 1 gusting 4 16.7
2019-Aug-17 18:25 276 1 gusting 6 16.7
2019-Aug-17 18:20 276 1 gusting 6 16.7
2019-Aug-17 18:15 276 2 gusting 4 16.1
2019-Aug-17 18:10 276 2 gusting 4 16.1
2019-Aug-17 18:05 273 3 gusting 6 15.6
2019-Aug-17 18:00 270 2 gusting 6 16.1
2019-Aug-17 17:55 268 1 gusting 3 16.1
2019-Aug-17 17:50 268 2 gusting 5 16.1
2019-Aug-17 17:45 267 2 gusting 5 16.1
2019-Aug-17 17:40 267 2 gusting 5 16.1
2019-Aug-17 17:35 267 1 gusting 5 15.6
2019-Aug-17 17:30 267 0 gusting 5 15.6
2019-Aug-17 17:25 267 0 gusting 3 15.6
2019-Aug-17 17:20 267 1 gusting 4 15.0
2019-Aug-17 17:15 268 1 gusting 4 15.0
2019-Aug-17 17:10 267 1 gusting 3 15.0
2019-Aug-17 17:05 268 1 gusting 3 15.0
2019-Aug-17 17:00 268 1 gusting 3 15.0
2019-Aug-17 16:55 267 0 gusting 3 15.0
2019-Aug-17 16:50 270 0 gusting 2 15.0
2019-Aug-17 16:45 274 0 gusting 2 15.0
2019-Aug-17 16:40 276 15.0
2019-Aug-17 16:35 15.0
2019-Aug-17 16:30 15.0
2019-Aug-17 16:25 275 15.0
2019-Aug-17 16:20 275 15.0
2019-Aug-17 16:15 15.0
2019-Aug-17 16:10 14.4
2019-Aug-17 16:05 14.4
2019-Aug-17 16:00 14.4
2019-Aug-17 15:55 14.4
2019-Aug-17 15:50 14.4
2019-Aug-17 15:45 14.4
2019-Aug-17 15:40 286 14.4
2019-Aug-17 15:35 286 14.4
2019-Aug-17 15:30 14.4
2019-Aug-17 15:25 14.4
2019-Aug-17 15:20 286 14.4
2019-Aug-17 15:15 286 0 gusting 3 14.4
2019-Aug-17 15:10 287 0 gusting 3 14.4
2019-Aug-17 15:05 287 0 gusting 3 14.4
2019-Aug-17 15:00 286 14.4
2019-Aug-17 14:55 14.4
2019-Aug-17 14:50 14.4
2019-Aug-17 14:45 286 14.4
2019-Aug-17 14:40 291 1 gusting 4 14.4
2019-Aug-17 14:35 293 2 gusting 4 14.4
2019-Aug-17 14:30 294 2 gusting 4 14.4
2019-Aug-17 14:25 294 2 gusting 5 13.9
2019-Aug-17 14:20 294 3 gusting 6 13.9
2019-Aug-17 14:15 293 3 gusting 6 13.9
2019-Aug-17 14:10 294 1 gusting 5 13.9
2019-Aug-17 14:05 294 1 gusting 4 13.9
2019-Aug-17 14:00 294 2 gusting 4 13.9
2019-Aug-17 13:55 293 3 gusting 6 13.9
2019-Aug-17 13:50 295 4 gusting 7 13.9
2019-Aug-17 13:45 301 5 gusting 8 13.9
2019-Aug-17 13:40 310 4 gusting 8 13.9
2019-Aug-17 13:35 314 4 gusting 8 13.9
2019-Aug-17 13:30 315 3 gusting 7 13.3
2019-Aug-17 13:25 317 3 gusting 6 13.3
2019-Aug-17 13:20 317 4 gusting 6 13.3
2019-Aug-17 13:15 315 5 gusting 7 13.3
2019-Aug-17 13:10 308 5 gusting 8 13.9
2019-Aug-17 13:05 305 5 gusting 8 13.3
2019-Aug-17 13:00 310 4 gusting 6 13.3
2019-Aug-17 12:55 312 4 gusting 6 13.3
2019-Aug-17 12:50 313 4 gusting 6 13.3
2019-Aug-17 12:45 314 4 gusting 6 13.3
2019-Aug-17 12:40 314 4 gusting 6 13.3
2019-Aug-17 12:35 315 4 gusting 6 13.3
2019-Aug-17 12:30 318 4 gusting 6 13.3
2019-Aug-17 12:25 321 5 gusting 8 13.3
2019-Aug-17 12:20 321 6 gusting 8 13.3
2019-Aug-17 12:15 319 6 gusting 9 13.9
2019-Aug-17 12:10 322 6 gusting 10 13.9
2019-Aug-17 12:05 328 6 gusting 10 13.9
2019-Aug-17 12:00 330 6 gusting 8 13.9
2019-Aug-17 11:55 331 6 gusting 8 13.9
2019-Aug-17 11:50 329 6 gusting 10 13.9
2019-Aug-17 11:45 328 6 gusting 10 13.9
2019-Aug-17 11:40 330 6 gusting 10 13.9
2019-Aug-17 11:35 333 6 gusting 10 13.9
2019-Aug-17 11:30 333 6 gusting 10 13.9
2019-Aug-17 11:25 330 6 gusting 10 13.9
2019-Aug-17 11:20 323 5 gusting 9 13.9
2019-Aug-17 11:15 320 5 gusting 9 13.9
2019-Aug-17 11:10 319 5 gusting 7 13.9
2019-Aug-17 11:05 318 5 gusting 7 13.9
2019-Aug-17 11:00 318 5 gusting 7 13.9
2019-Aug-17 10:55 317 4 gusting 7 13.9
2019-Aug-17 10:50 316 4 gusting 7 13.9
2019-Aug-17 10:45 320 5 gusting 8 14.4
2019-Aug-17 10:40 325 5 gusting 8 14.4
2019-Aug-17 10:35 328 5 gusting 7 14.4
2019-Aug-17 10:30 329 5 gusting 10 14.4
2019-Aug-17 10:25 329 5 gusting 10 14.4
2019-Aug-17 10:20 328 5 gusting 8 14.4
2019-Aug-17 10:15 326 5 gusting 8 14.4
2019-Aug-17 10:10 327 5 gusting 8 14.4
2019-Aug-17 10:05 329 6 gusting 9 14.4
2019-Aug-17 10:00 332 6 gusting 9 14.4
2019-Aug-17 09:55 332 6 gusting 10 14.4
2019-Aug-17 09:50 331 7 gusting 10 14.4
2019-Aug-17 09:45 331 6 gusting 10 13.9
2019-Aug-17 09:35 325 6 gusting 10 13.9
2019-Aug-17 09:30 326 6 gusting 12 13.9
2019-Aug-17 09:25 325 6 gusting 12 13.9
2019-Aug-17 09:20 323 6 gusting 10 13.9
2019-Aug-17 09:15 323 6 gusting 10 13.9
2019-Aug-17 09:10 319 5 gusting 9 13.9
2019-Aug-17 09:05 318 5 gusting 9 13.9
2019-Aug-17 09:00 317 5 gusting 10 13.9
2019-Aug-17 08:55 324 6 gusting 10 13.9
2019-Aug-17 08:50 330 6 gusting 10 13.9
2019-Aug-17 08:45 330 6 gusting 12 14.4
2019-Aug-17 08:40 327 7 gusting 12 14.4
2019-Aug-17 08:35 327 7 gusting 12 14.4
2019-Aug-17 08:30 331 7 gusting 10 14.4
2019-Aug-17 08:25 330 6 gusting 9 13.9
2019-Aug-17 08:20 329 6 gusting 9 13.9
2019-Aug-17 08:15 330 6 gusting 9 13.9
2019-Aug-17 08:10 332 5 gusting 8 13.9
2019-Aug-17 08:05 332 6 gusting 9 13.9
2019-Aug-17 08:00 333 6 gusting 9 13.9
2019-Aug-17 07:55 334 6 gusting 10 13.9
2019-Aug-17 07:50 332 6 gusting 10 13.9
2019-Aug-17 07:45 329 6 gusting 8 13.9
2019-Aug-17 07:40 327 6 gusting 9 13.9
2019-Aug-17 07:35 323 6 gusting 10 13.9
2019-Aug-17 07:30 322 6 gusting 10 13.9
2019-Aug-17 07:25 325 6 gusting 10 13.9
2019-Aug-17 07:20 328 6 gusting 10 13.9
2019-Aug-17 07:15 329 6 gusting 11 13.9
2019-Aug-17 07:10 324 6 gusting 11 13.9
2019-Aug-17 07:05 320 6 gusting 10 13.3
2019-Aug-17 07:00 321 6 gusting 12 13.3
2019-Aug-17 06:55 326 7 gusting 12 13.3
2019-Aug-17 06:50 334 7 gusting 12 13.3
2019-Aug-17 06:45 334 6 gusting 10 13.3
2019-Aug-17 06:40 332 6 gusting 10 13.3
2019-Aug-17 06:35 332 6 gusting 12 13.3
2019-Aug-17 06:30 335 6 gusting 12 13.3
2019-Aug-17 06:25 336 6 gusting 11 13.3
2019-Aug-17 06:20 333 6 gusting 11 13.9
2019-Aug-17 06:15 331 6 gusting 11 13.9
2019-Aug-17 06:10 328 6 gusting 8 13.9
2019-Aug-17 06:05 325 5 gusting 7 13.9
2019-Aug-17 06:00 324 6 gusting 9 13.9
2019-Aug-17 05:55 330 6 gusting 9 13.9
2019-Aug-17 05:50 338 6 gusting 8 14.4
2019-Aug-17 05:45 340 6 gusting 9 14.4
2019-Aug-17 05:40 344 6 gusting 9 15.0
2019-Aug-17 05:35 346 6 gusting 9 15.0
2019-Aug-17 05:30 358 6 gusting 8 15.0
2019-Aug-17 05:25 015 4 gusting 8 15.6
2019-Aug-17 05:20 022 3 gusting 6 15.6
2019-Aug-17 05:15 022 4 gusting 6 15.6
2019-Aug-17 05:10 022 3 gusting 6 15.6
2019-Aug-17 05:05 022 3 gusting 6 15.6
2019-Aug-17 05:00 021 2 gusting 6 15.6
2019-Aug-17 04:55 022 4 gusting 6 15.6
2019-Aug-17 04:50 021 5 gusting 6 16.1
2019-Aug-17 04:45 022 5 gusting 6 15.6
2019-Aug-17 04:40 021 4 gusting 6 15.6
2019-Aug-17 04:35 023 4 gusting 6 15.6
2019-Aug-17 04:30 027 3 gusting 6 15.0
2019-Aug-17 04:25 038 0 gusting 5 15.0
2019-Aug-17 04:20 037 15.0
2019-Aug-17 04:15 037 15.6
2019-Aug-17 04:10 037 0 gusting 4 15.6
2019-Aug-17 04:05 037 0 gusting 4 15.6
2019-Aug-17 04:00 037 16.7
2019-Aug-17 03:55 16.7
2019-Aug-17 03:50 16.7
2019-Aug-17 03:45 16.7
2019-Aug-17 03:40 16.7
2019-Aug-17 03:35 16.7
2019-Aug-17 03:30 038 17.2
2019-Aug-17 03:25 038 17.2
2019-Aug-17 03:20 037 17.8
2019-Aug-17 03:15 037 17.8
2019-Aug-17 03:10 17.8
2019-Aug-17 03:05 037 18.3
2019-Aug-17 03:00 037 18.3
2019-Aug-17 02:55 038 0 gusting 3 18.3
2019-Aug-17 02:50 038 1 gusting 3 18.9
2019-Aug-17 02:45 038 0 gusting 3 18.9
2019-Aug-17 02:40 038 18.9
2019-Aug-17 02:35 18.9
2019-Aug-17 02:30 18.3
2019-Aug-17 02:25 041 18.3
2019-Aug-17 02:20 041 18.3
2019-Aug-17 02:15 041 0 gusting 4 18.3
2019-Aug-17 02:10 041 0 gusting 4 18.9
2019-Aug-17 02:05 041 0 gusting 3 18.9
2019-Aug-17 02:00 030 0 gusting 3 18.9
2019-Aug-17 01:55 353 0 gusting 4 18.3
2019-Aug-17 01:50 346 0 gusting 4 18.3
2019-Aug-17 01:45 346 0 gusting 3 18.3
2019-Aug-17 01:40 346 0 gusting 3 18.3
2019-Aug-17 01:35 346 0 gusting 3 18.3
2019-Aug-17 01:30 346 0 gusting 3 18.3
2019-Aug-17 01:25 346 0 gusting 4 18.9
2019-Aug-17 01:20 346 0 gusting 4 18.9
2019-Aug-17 01:15 346 0 gusting 3 18.9
2019-Aug-17 01:10 346 1 gusting 4 18.9
2019-Aug-17 01:05 346 1 gusting 4 18.9
2019-Aug-17 01:00 346 1 gusting 4 19.4
2019-Aug-17 00:55 346 1 gusting 3 19.4
2019-Aug-17 00:50 346 1 gusting 4 19.4
2019-Aug-17 00:45 346 2 gusting 4 19.4
2019-Aug-17 00:40 346 2 gusting 5 20.0
2019-Aug-17 00:35 346 3 gusting 5 20.0
2019-Aug-17 00:30 346 3 gusting 5 20.0
2019-Aug-17 00:25 346 3 gusting 5 20.0
2019-Aug-17 00:20 347 3 gusting 5 20.6
2019-Aug-17 00:15 351 3 gusting 5 20.6
2019-Aug-17 00:10 356 3 gusting 6 20.0
2019-Aug-17 00:05 359 2 gusting 6 20.0
2019-Aug-17 00:00 001 2 gusting 5 20.0
2019-Aug-16 23:55 001 2 gusting 5 19.4
2019-Aug-16 23:50 001 2 gusting 5 18.9
2019-Aug-16 23:45 001 3 gusting 5 19.4
2019-Aug-16 23:40 003 3 gusting 5 20.0
2019-Aug-16 23:35 006 3 gusting 5 19.4
2019-Aug-16 23:30 006 2 gusting 5 19.4
2019-Aug-16 23:25 005 1 gusting 3 18.3
2019-Aug-16 23:20 005 2 gusting 4 18.3
2019-Aug-16 23:15 005 2 gusting 4 18.9
2019-Aug-16 23:10 006 0 gusting 3 18.9
2019-Aug-16 23:05 005 1 gusting 4 17.8
2019-Aug-16 23:00 008 3 gusting 6 17.8
2019-Aug-16 22:55 003 4 gusting 6 18.3
2019-Aug-16 22:50 339 5 gusting 7 18.9
2019-Aug-16 22:45 320 5 gusting 7 18.9
2019-Aug-16 22:40 282 4 gusting 7 18.3
2019-Aug-16 22:35 252 4 gusting 6 18.3
2019-Aug-16 22:30 251 3 gusting 6 19.4
2019-Aug-16 22:25 250 2 gusting 5 20.0
2019-Aug-16 22:20 250 3 gusting 5 20.0
2019-Aug-16 22:15 249 3 gusting 6 19.4
2019-Aug-16 22:10 249 3 gusting 6 19.4
2019-Aug-16 22:05 250 4 gusting 6 19.4
2019-Aug-16 22:00 251 4 gusting 6 20.0
2019-Aug-16 21:55 253 4 gusting 6 20.0
2019-Aug-16 21:50 247 3 gusting 6 19.4
2019-Aug-16 21:45 226 3 gusting 6 19.4
2019-Aug-16 21:40 217 4 gusting 6 19.4
2019-Aug-16 21:35 217 4 gusting 6 19.4
2019-Aug-16 21:30 217 3 gusting 5 19.4
2019-Aug-16 21:25 217 3 gusting 6 18.9
2019-Aug-16 21:20 217 4 gusting 6 18.9
2019-Aug-16 21:15 217 4 gusting 5 19.4
2019-Aug-16 21:10 217 3 gusting 5 19.4
2019-Aug-16 21:05 215 4 gusting 6 19.4
2019-Aug-16 21:00 211 4 gusting 6 19.4
2019-Aug-16 20:55 200 4 gusting 6 18.9
2019-Aug-16 20:50 194 4 gusting 6 18.3
2019-Aug-16 20:45 192 3 gusting 6 18.3
2019-Aug-16 20:40 192 3 gusting 6 17.8
2019-Aug-16 20:35 191 3 gusting 6 17.8
2019-Aug-16 20:30 190 3 gusting 6 17.8
2019-Aug-16 20:25 189 3 gusting 6 17.8
2019-Aug-16 20:20 188 4 gusting 6 17.8
2019-Aug-16 20:15 188 4 gusting 6 17.8
2019-Aug-16 20:10 187 3 gusting 6 17.8
2019-Aug-16 20:05 187 2 gusting 6 17.8
2019-Aug-16 20:00 187 2 gusting 6 17.8
2019-Aug-16 19:55 187 2 gusting 6 17.8
2019-Aug-16 19:50 187 1 gusting 6 17.8
2019-Aug-16 19:45 187 0 gusting 5 17.8
2019-Aug-16 19:40 187 0 gusting 4 17.8
2019-Aug-16 19:35 187 0 gusting 4 17.8
2019-Aug-16 19:30 187 0 gusting 5 17.2
2019-Aug-16 19:25 187 0 gusting 5 17.2
2019-Aug-16 19:20 187 0 gusting 5 16.7
2019-Aug-16 19:15 187 0 gusting 5 16.7
2019-Aug-16 19:10 187 0 gusting 5 16.7
2019-Aug-16 19:05 188 1 gusting 5 16.7
2019-Aug-16 19:00 188 2 gusting 6 16.7
2019-Aug-16 18:55 188 1 gusting 6 16.7
2019-Aug-16 18:50 189 1 gusting 6 16.7
2019-Aug-16 18:45 190 0 gusting 6 16.7
2019-Aug-16 18:40 187 0 gusting 7 16.7
2019-Aug-16 18:35 176 1 gusting 7 16.7
2019-Aug-16 18:30 167 2 gusting 6 16.7
2019-Aug-16 18:25 164 1 gusting 6 16.7
2019-Aug-16 18:20 161 1 gusting 5 16.7
2019-Aug-16 18:15 161 1 gusting 5 16.7
2019-Aug-16 18:10 161 1 gusting 6 16.7
2019-Aug-16 18:05 159 1 gusting 6 16.1
2019-Aug-16 18:00 156 1 gusting 5 16.1
2019-Aug-16 17:55 155 0 gusting 4 16.1
2019-Aug-16 17:50 155 0 gusting 4 16.1
2019-Aug-16 17:45 154 0 gusting 5 16.1
2019-Aug-16 17:40 151 0 gusting 5 16.1
2019-Aug-16 17:35 151 0 gusting 4 16.1
2019-Aug-16 17:30 150 16.1
2019-Aug-16 17:25 150 0 gusting 4 15.6
2019-Aug-16 17:20 151 0 gusting 4 15.6
2019-Aug-16 17:15 150 0 gusting 5 15.6
2019-Aug-16 17:10 150 0 gusting 5 15.6
2019-Aug-16 17:05 150 0 gusting 5 15.0
2019-Aug-16 17:00 150 0 gusting 4 15.0
2019-Aug-16 16:55 150 0 gusting 5 15.0
2019-Aug-16 16:50 150 1 gusting 5 15.0
2019-Aug-16 16:45 150 1 gusting 5 15.0
2019-Aug-16 16:40 149 1 gusting 5 15.0
2019-Aug-16 16:35 148 0 gusting 5 15.0
2019-Aug-16 16:30 146 15.0
2019-Aug-16 16:25 144 15.0
2019-Aug-16 16:20 140 15.0
2019-Aug-16 16:15 138 0 gusting 5 15.0
2019-Aug-16 16:10 136 1 gusting 5 15.0
2019-Aug-16 16:05 133 1 gusting 6 15.0
2019-Aug-16 16:00 131 0 gusting 6 15.0
2019-Aug-16 15:55 131 0 gusting 4 15.0
2019-Aug-16 15:50 137 14.4
2019-Aug-16 15:45 137 14.4
2019-Aug-16 15:40 137 14.4
2019-Aug-16 15:35 137 14.4
2019-Aug-16 15:30 137 14.4
2019-Aug-16 15:25 137 14.4
2019-Aug-16 15:20 137 14.4
2019-Aug-16 15:15 138 1 gusting 3 14.4
2019-Aug-16 15:10 138 1 gusting 4 14.4
2019-Aug-16 15:05 138 2 gusting 4 14.4
2019-Aug-16 15:00 140 3 gusting 6 14.4
2019-Aug-16 14:55 142 1 gusting 6 14.4
2019-Aug-16 14:50 144 13.9
2019-Aug-16 14:45 13.9
2019-Aug-16 14:40 153 13.9
2019-Aug-16 14:35 153 1 gusting 3 13.9
2019-Aug-16 14:30 153 1 gusting 3 13.9
2019-Aug-16 14:25 153 0 gusting 3 13.9
2019-Aug-16 14:20 153 0 gusting 4 13.9
2019-Aug-16 14:15 153 2 gusting 4 13.9
2019-Aug-16 14:10 153 2 gusting 4 13.9
2019-Aug-16 14:05 174 2 gusting 7 13.9
2019-Aug-16 14:00 189 3 gusting 7 13.9
2019-Aug-16 13:55 194 2 gusting 6 13.9
2019-Aug-16 13:50 196 2 gusting 6 13.9
2019-Aug-16 13:45 200 2 gusting 6 13.9
2019-Aug-16 13:40 203 2 gusting 6 13.3
2019-Aug-16 13:35 206 1 gusting 6 13.3
2019-Aug-16 13:30 207 2 gusting 6 13.3
2019-Aug-16 13:25 207 3 gusting 6 13.9
2019-Aug-16 13:20 204 4 gusting 6 13.9
2019-Aug-16 13:15 199 4 gusting 6 13.9
2019-Aug-16 13:10 199 2 gusting 6 13.3
2019-Aug-16 13:05 198 2 gusting 8 13.3
2019-Aug-16 13:00 204 5 gusting 9 13.3
2019-Aug-16 12:55 210 6 gusting 9 13.3
2019-Aug-16 12:50 210 6 gusting 9 13.3
2019-Aug-16 12:45 207 5 gusting 9 13.3
2019-Aug-16 12:40 211 5 gusting 9 13.9
2019-Aug-16 12:35 218 5 gusting 9 13.9
2019-Aug-16 12:30 228 4 gusting 6 13.9
2019-Aug-16 12:25 250 4 gusting 6 14.4
2019-Aug-16 12:20 253 6 gusting 7 14.4
2019-Aug-16 12:15 244 6 gusting 8 14.4
2019-Aug-16 12:10 251 6 gusting 10 14.4
2019-Aug-16 12:05 263 7 gusting 10 14.4
2019-Aug-16 12:00 264 8 gusting 11 14.4
2019-Aug-16 11:55 269 8 gusting 11 14.4
2019-Aug-16 11:50 271 8 gusting 11 14.4
2019-Aug-16 11:45 271 7 gusting 11 14.4
2019-Aug-16 11:40 277 6 gusting 11 14.4
2019-Aug-16 11:35 289 7 gusting 11 14.4
2019-Aug-16 11:30 300 7 gusting 12 14.4
2019-Aug-16 11:25 304 7 gusting 12 14.4
2019-Aug-16 11:20 302 7 gusting 13 13.9
2019-Aug-16 11:15 298 7 gusting 13 13.9
2019-Aug-16 11:10 294 7 gusting 10 13.9
2019-Aug-16 11:05 291 8 gusting 11 13.9
2019-Aug-16 11:00 289 8 gusting 12 13.9
2019-Aug-16 10:55 289 10 gusting 13 13.3
2019-Aug-16 10:50 288 10 gusting 13 13.3
2019-Aug-16 10:45 286 10 gusting 13 13.3
2019-Aug-16 10:40 287 10 gusting 13 13.3
2019-Aug-16 10:35 291 10 gusting 13 13.3
2019-Aug-16 10:30 296 10 gusting 17 13.3
2019-Aug-16 10:25 299 12 gusting 19 13.3
2019-Aug-16 10:20 301 12 gusting 19 13.3
2019-Aug-16 10:15 301 11 gusting 16 13.3
2019-Aug-16 10:10 302 11 gusting 16 13.3
2019-Aug-16 10:05 302 12 gusting 18 13.3
2019-Aug-16 10:00 308 13 gusting 20 13.3
2019-Aug-16 09:55 310 13 gusting 20 13.3
2019-Aug-16 09:50 304 13 gusting 19 12.8
2019-Aug-16 09:45 301 12 gusting 19 12.8
2019-Aug-16 09:40 303 12 gusting 18 12.8
2019-Aug-16 09:35 305 13 gusting 19 12.8
2019-Aug-16 09:30 309 16 gusting 24 12.8
2019-Aug-16 09:25 311 18 gusting 24 12.8
2019-Aug-16 09:20 313 19 gusting 25 12.8
2019-Aug-16 09:15 319 19 gusting 25 12.8
2019-Aug-16 09:10 324 18 gusting 25 12.8
2019-Aug-16 09:05 325 18 gusting 24 12.8
2019-Aug-16 09:00 326 18 gusting 24 12.8
2019-Aug-16 08:55 325 17 gusting 22 12.8
2019-Aug-16 08:50 317 16 gusting 22 12.8
2019-Aug-16 08:45 311 16 gusting 24 12.8
2019-Aug-16 08:40 310 17 gusting 24 12.8
2019-Aug-16 08:35 308 16 gusting 25 12.2
2019-Aug-16 08:30 307 15 gusting 25 12.2
2019-Aug-16 08:25 306 15 gusting 23 12.2
2019-Aug-16 08:20 308 16 gusting 22 12.2
2019-Aug-16 08:15 312 16 gusting 22 12.2
2019-Aug-16 08:10 314 16 gusting 21 12.2
2019-Aug-16 08:05 311 14 gusting 22 12.2
2019-Aug-16 08:00 307 13 gusting 22 12.2
2019-Aug-16 07:55 306 13 gusting 19 12.2
2019-Aug-16 07:50 306 13 gusting 20 12.2
2019-Aug-16 07:45 310 14 gusting 20 12.2
2019-Aug-16 07:40 311 14 gusting 19 12.2
2019-Aug-16 07:35 312 14 gusting 20 12.2
2019-Aug-16 07:30 318 15 gusting 20 12.2
2019-Aug-16 07:25 321 15 gusting 20 12.2
2019-Aug-16 07:20 320 14 gusting 20 12.2
2019-Aug-16 07:15 320 13 gusting 19 12.2
2019-Aug-16 07:10 323 13 gusting 19 12.2
2019-Aug-16 07:05 324 12 gusting 18 12.2
2019-Aug-16 07:00 325 11 gusting 17 12.2
2019-Aug-16 06:55 324 12 gusting 18 12.2
2019-Aug-16 06:50 321 11 gusting 18 12.8
2019-Aug-16 06:45 321 11 gusting 18 12.8
2019-Aug-16 06:40 323 11 gusting 18 12.8
2019-Aug-16 06:35 324 12 gusting 17 12.8
2019-Aug-16 06:30 323 12 gusting 17 12.8
2019-Aug-16 06:25 322 13 gusting 19 12.8
2019-Aug-16 06:20 324 14 gusting 19 12.8
2019-Aug-16 06:15 322 14 gusting 19 12.8
2019-Aug-16 06:10 320 14 gusting 19 12.8
2019-Aug-16 06:05 320 14 gusting 19 12.8
2019-Aug-16 06:00 317 14 gusting 20 12.8
2019-Aug-16 05:55 318 13 gusting 20 12.8
2019-Aug-16 05:50 323 14 gusting 19 12.8
2019-Aug-16 05:45 326 14 gusting 19 12.8
2019-Aug-16 05:40 324 14 gusting 19 12.8
2019-Aug-16 05:35 320 14 gusting 19 12.8
2019-Aug-16 05:30 321 14 gusting 19 12.8
2019-Aug-16 05:25 322 15 gusting 22 12.8
2019-Aug-16 05:20 319 15 gusting 22 12.8
2019-Aug-16 05:15 316 14 gusting 19 12.8
2019-Aug-16 05:10 313 13 gusting 19 12.8
2019-Aug-16 05:05 305 11 gusting 16 12.8
2019-Aug-16 05:00 304 11 gusting 20 12.8